sensor_id;sensor_type;location;lat;lon;timestamp;pressure;altitude;pressure_sealevel;temperature;humidity
38616;BME280;24370;51.986;4.666;2023-07-13T00:01:16;101417.81;;;24.96;52.51
38616;BME280;24370;51.986;4.666;2023-07-13T00:03:42;101423.81;;;24.54;53.43
38616;BME280;24370;51.986;4.666;2023-07-13T00:06:08;101414.19;;;25.40;51.48
38616;BME280;24370;51.986;4.666;2023-07-13T00:08:35;101424.22;;;25.08;51.81
38616;BME280;24370;51.986;4.666;2023-07-13T00:11:01;101421.97;;;24.71;53.46
38616;BME280;24370;51.986;4.666;2023-07-13T00:13:28;101422.00;;;24.85;53.37
38616;BME280;24370;51.986;4.666;2023-07-13T00:15:55;101413.41;;;24.80;53.16
38616;BME280;24370;51.986;4.666;2023-07-13T00:18:21;101420.84;;;23.82;55.23
38616;BME280;24370;51.986;4.666;2023-07-13T00:20:50;101412.78;;;24.61;53.22
38616;BME280;24370;51.986;4.666;2023-07-13T00:23:15;101419.19;;;24.28;54.24
38616;BME280;24370;51.986;4.666;2023-07-13T00:25:42;101413.56;;;24.63;52.08
38616;BME280;24370;51.986;4.666;2023-07-13T00:28:07;101413.50;;;24.93;51.78
38616;BME280;24370;51.986;4.666;2023-07-13T00:30:33;101423.38;;;24.32;53.73
38616;BME280;24370;51.986;4.666;2023-07-13T00:32:58;101420.50;;;25.10;50.25
38616;BME280;24370;51.986;4.666;2023-07-13T00:35:26;101429.47;;;25.09;50.67
38616;BME280;24370;51.986;4.666;2023-07-13T00:37:52;101424.47;;;25.03;50.49
38616;BME280;24370;51.986;4.666;2023-07-13T00:40:18;101414.97;;;25.42;49.36
38616;BME280;24370;51.986;4.666;2023-07-13T00:42:43;101414.56;;;25.48;49.38
38616;BME280;24370;51.986;4.666;2023-07-13T00:47:38;101409.84;;;25.94;47.33
38616;BME280;24370;51.986;4.666;2023-07-13T00:50:07;101415.28;;;25.65;48.48
38616;BME280;24370;51.986;4.666;2023-07-13T00:52:40;101416.69;;;25.70;48.30
38616;BME280;24370;51.986;4.666;2023-07-13T00:55:07;101422.81;;;24.41;52.08
38616;BME280;24370;51.986;4.666;2023-07-13T00:57:34;101419.91;;;25.19;49.65
38616;BME280;24370;51.986;4.666;2023-07-13T01:00:03;101424.19;;;25.22;49.02
38616;BME280;24370;51.986;4.666;2023-07-13T01:02:32;101418.13;;;24.61;50.00
38616;BME280;24370;51.986;4.666;2023-07-13T01:05:04;101423.28;;;24.03;52.48
38616;BME280;24370;51.986;4.666;2023-07-13T01:07:37;101419.53;;;25.54;48.07
38616;BME280;24370;51.986;4.666;2023-07-13T01:10:03;101420.09;;;24.87;50.17
38616;BME280;24370;51.986;4.666;2023-07-13T01:12:29;101432.47;;;25.75;47.98
38616;BME280;24370;51.986;4.666;2023-07-13T01:15:00;101421.25;;;25.27;50.47
38616;BME280;24370;51.986;4.666;2023-07-13T01:17:28;101423.88;;;25.70;48.95
38616;BME280;24370;51.986;4.666;2023-07-13T01:19:54;101423.72;;;25.59;49.73
38616;BME280;24370;51.986;4.666;2023-07-13T01:22:20;101423.28;;;25.79;48.82
38616;BME280;24370;51.986;4.666;2023-07-13T01:24:50;101427.56;;;25.54;49.82
38616;BME280;24370;51.986;4.666;2023-07-13T01:27:20;101429.44;;;25.67;49.92
38616;BME280;24370;51.986;4.666;2023-07-13T01:29:46;101447.50;;;24.61;53.85
38616;BME280;24370;51.986;4.666;2023-07-13T01:32:16;101437.22;;;25.57;51.14
38616;BME280;24370;51.986;4.666;2023-07-13T01:34:42;101442.13;;;23.18;59.74
38616;BME280;24370;51.986;4.666;2023-07-13T01:37:08;101446.94;;;24.09;56.01
38616;BME280;24370;51.986;4.666;2023-07-13T01:39:34;101444.44;;;24.52;53.72
38616;BME280;24370;51.986;4.666;2023-07-13T01:42:00;101440.91;;;25.11;51.98
38616;BME280;24370;51.986;4.666;2023-07-13T01:44:26;101446.63;;;23.34;58.40
38616;BME280;24370;51.986;4.666;2023-07-13T01:46:51;101447.88;;;24.85;54.13
38616;BME280;24370;51.986;4.666;2023-07-13T01:49:17;101455.06;;;25.28;51.00
38616;BME280;24370;51.986;4.666;2023-07-13T01:51:42;101453.16;;;25.30;50.94
38616;BME280;24370;51.986;4.666;2023-07-13T01:54:08;101450.47;;;25.15;51.30
38616;BME280;24370;51.986;4.666;2023-07-13T01:56:36;101459.56;;;25.98;48.50
38616;BME280;24370;51.986;4.666;2023-07-13T01:59:02;101450.78;;;25.96;48.75
38616;BME280;24370;51.986;4.666;2023-07-13T02:01:27;101460.31;;;25.72;49.11
38616;BME280;24370;51.986;4.666;2023-07-13T02:03:53;101460.69;;;25.09;51.47
38616;BME280;24370;51.986;4.666;2023-07-13T02:06:18;101460.81;;;25.92;48.66
38616;BME280;24370;51.986;4.666;2023-07-13T02:08:44;101464.25;;;24.64;51.96
38616;BME280;24370;51.986;4.666;2023-07-13T02:11:09;101460.31;;;25.15;50.78
38616;BME280;24370;51.986;4.666;2023-07-13T02:13:35;101458.81;;;25.39;48.97
38616;BME280;24370;51.986;4.666;2023-07-13T02:16:00;101452.47;;;25.26;49.12
38616;BME280;24370;51.986;4.666;2023-07-13T02:18:26;101465.22;;;24.78;50.44
38616;BME280;24370;51.986;4.666;2023-07-13T02:20:51;101447.13;;;25.69;47.32
38616;BME280;24370;51.986;4.666;2023-07-13T02:23:17;101459.34;;;24.10;51.10
38616;BME280;24370;51.986;4.666;2023-07-13T02:25:44;101458.22;;;24.14;50.68
38616;BME280;24370;51.986;4.666;2023-07-13T02:28:10;101455.59;;;23.81;50.61
38616;BME280;24370;51.986;4.666;2023-07-13T02:30:35;101448.69;;;23.45;51.51
38616;BME280;24370;51.986;4.666;2023-07-13T02:33:01;101450.59;;;23.59;52.20
38616;BME280;24370;51.986;4.666;2023-07-13T02:35:26;101444.34;;;25.56;46.77
38616;BME280;24370;51.986;4.666;2023-07-13T02:37:52;101453.38;;;23.73;51.49
38616;BME280;24370;51.986;4.666;2023-07-13T02:40:17;101454.28;;;23.90;51.72
38616;BME280;24370;51.986;4.666;2023-07-13T02:42:43;101454.59;;;24.15;50.75
38616;BME280;24370;51.986;4.666;2023-07-13T02:45:09;101462.84;;;24.73;49.31
38616;BME280;24370;51.986;4.666;2023-07-13T02:47:35;101459.25;;;23.96;51.15
38616;BME280;24370;51.986;4.666;2023-07-13T02:50:02;101465.00;;;24.04;51.83
38616;BME280;24370;51.986;4.666;2023-07-13T02:52:28;101457.34;;;23.66;53.28
38616;BME280;24370;51.986;4.666;2023-07-13T02:54:53;101460.09;;;24.12;52.71
38616;BME280;24370;51.986;4.666;2023-07-13T02:57:19;101462.56;;;24.78;50.85
38616;BME280;24370;51.986;4.666;2023-07-13T02:59:44;101451.44;;;23.43;54.62
38616;BME280;24370;51.986;4.666;2023-07-13T03:02:10;101460.09;;;24.59;51.44
38616;BME280;24370;51.986;4.666;2023-07-13T03:04:36;101456.56;;;24.88;51.28
38616;BME280;24370;51.986;4.666;2023-07-13T03:07:02;101457.53;;;25.16;50.35
38616;BME280;24370;51.986;4.666;2023-07-13T03:09:28;101466.56;;;23.76;54.65
38616;BME280;24370;51.986;4.666;2023-07-13T03:11:54;101462.59;;;23.83;55.12
38616;BME280;24370;51.986;4.666;2023-07-13T03:14:22;101461.72;;;23.17;57.93
38616;BME280;24370;51.986;4.666;2023-07-13T03:16:47;101457.41;;;24.89;52.05
38616;BME280;24370;51.986;4.666;2023-07-13T03:19:13;101452.00;;;25.05;51.69
38616;BME280;24370;51.986;4.666;2023-07-13T03:21:39;101453.72;;;25.20;51.01
38616;BME280;24370;51.986;4.666;2023-07-13T03:24:05;101453.50;;;24.95;51.43
38616;BME280;24370;51.986;4.666;2023-07-13T03:26:30;101465.94;;;24.35;53.64
38616;BME280;24370;51.986;4.666;2023-07-13T03:28:56;101451.28;;;23.46;58.73
38616;BME280;24370;51.986;4.666;2023-07-13T03:31:25;101452.59;;;25.10;52.21
38616;BME280;24370;51.986;4.666;2023-07-13T03:33:52;101469.09;;;23.95;55.76
38616;BME280;24370;51.986;4.666;2023-07-13T03:36:20;101469.38;;;24.98;52.28
38616;BME280;24370;51.986;4.666;2023-07-13T03:38:51;101461.00;;;25.18;51.65
38616;BME280;24370;51.986;4.666;2023-07-13T03:41:19;101473.53;;;24.27;54.25
38616;BME280;24370;51.986;4.666;2023-07-13T03:43:44;101471.38;;;25.09;51.75
38616;BME280;24370;51.986;4.666;2023-07-13T03:46:10;101469.50;;;24.66;53.50
38616;BME280;24370;51.986;4.666;2023-07-13T03:48:36;101470.16;;;25.14;51.55
38616;BME280;24370;51.986;4.666;2023-07-13T03:51:01;101468.97;;;24.59;53.71
38616;BME280;24370;51.986;4.666;2023-07-13T03:53:27;101472.06;;;25.12;52.37
38616;BME280;24370;51.986;4.666;2023-07-13T03:55:52;101475.59;;;24.37;54.65
38616;BME280;24370;51.986;4.666;2023-07-13T03:58:29;101482.41;;;24.73;54.50
38616;BME280;24370;51.986;4.666;2023-07-13T04:00:55;101485.88;;;24.60;54.52
38616;BME280;24370;51.986;4.666;2023-07-13T04:03:21;101484.88;;;24.46;54.98
38616;BME280;24370;51.986;4.666;2023-07-13T04:05:46;101494.75;;;23.98;58.25
38616;BME280;24370;51.986;4.666;2023-07-13T04:08:12;101487.59;;;24.61;56.01
38616;BME280;24370;51.986;4.666;2023-07-13T04:10:38;101490.13;;;24.48;56.02
38616;BME280;24370;51.986;4.666;2023-07-13T04:13:04;101484.41;;;24.24;56.87
38616;BME280;24370;51.986;4.666;2023-07-13T04:15:30;101494.03;;;24.26;56.96
38616;BME280;24370;51.986;4.666;2023-07-13T04:17:56;101493.41;;;24.37;58.00
38616;BME280;24370;51.986;4.666;2023-07-13T04:20:22;101495.19;;;24.68;56.12
38616;BME280;24370;51.986;4.666;2023-07-13T04:22:49;101498.63;;;24.70;55.58
38616;BME280;24370;51.986;4.666;2023-07-13T04:25:14;101501.28;;;23.92;58.71
38616;BME280;24370;51.986;4.666;2023-07-13T04:27:40;101498.34;;;24.59;57.29
38616;BME280;24370;51.986;4.666;2023-07-13T04:30:06;101508.28;;;23.95;59.26
38616;BME280;24370;51.986;4.666;2023-07-13T04:32:32;101512.94;;;24.07;58.59
38616;BME280;24370;51.986;4.666;2023-07-13T04:34:58;101506.44;;;24.43;57.76
38616;BME280;24370;51.986;4.666;2023-07-13T04:37:25;101505.22;;;24.33;57.73
38616;BME280;24370;51.986;4.666;2023-07-13T04:39:51;101507.69;;;23.72;60.96
38616;BME280;24370;51.986;4.666;2023-07-13T04:42:17;101507.00;;;23.35;63.14
38616;BME280;24370;51.986;4.666;2023-07-13T04:44:50;101510.56;;;24.65;56.88
38616;BME280;24370;51.986;4.666;2023-07-13T04:47:16;101522.41;;;24.75;56.78
38616;BME280;24370;51.986;4.666;2023-07-13T04:49:42;101526.69;;;24.94;56.93
38616;BME280;24370;51.986;4.666;2023-07-13T04:52:08;101517.88;;;24.92;56.90
38616;BME280;24370;51.986;4.666;2023-07-13T04:54:37;101513.25;;;25.24;56.54
38616;BME280;24370;51.986;4.666;2023-07-13T04:57:04;101514.72;;;25.59;54.81
38616;BME280;24370;51.986;4.666;2023-07-13T04:59:32;101509.75;;;25.67;54.23
38616;BME280;24370;51.986;4.666;2023-07-13T05:01:58;101513.00;;;25.43;55.27
38616;BME280;24370;51.986;4.666;2023-07-13T05:04:23;101514.53;;;25.47;55.33
38616;BME280;24370;51.986;4.666;2023-07-13T05:06:49;101514.09;;;26.38;51.58
38616;BME280;24370;51.986;4.666;2023-07-13T05:09:14;101524.00;;;25.08;55.41
38616;BME280;24370;51.986;4.666;2023-07-13T05:11:40;101520.31;;;25.25;55.88
38616;BME280;24370;51.986;4.666;2023-07-13T05:14:05;101536.09;;;25.73;53.50
38616;BME280;24370;51.986;4.666;2023-07-13T05:16:31;101526.66;;;25.82;53.01
38616;BME280;24370;51.986;4.666;2023-07-13T05:18:57;101532.63;;;26.14;51.75
38616;BME280;24370;51.986;4.666;2023-07-13T05:21:23;101537.53;;;24.90;55.65
38616;BME280;24370;51.986;4.666;2023-07-13T05:23:49;101534.69;;;25.82;54.11
38616;BME280;24370;51.986;4.666;2023-07-13T05:26:15;101543.81;;;25.20;56.06
38616;BME280;24370;51.986;4.666;2023-07-13T05:28:40;101537.72;;;26.04;53.74
38616;BME280;24370;51.986;4.666;2023-07-13T05:31:08;101537.06;;;25.86;53.42
38616;BME280;24370;51.986;4.666;2023-07-13T05:33:37;101532.38;;;26.32;51.76
38616;BME280;24370;51.986;4.666;2023-07-13T05:36:03;101540.41;;;25.76;52.77
38616;BME280;24370;51.986;4.666;2023-07-13T05:38:28;101552.00;;;25.76;52.69
38616;BME280;24370;51.986;4.666;2023-07-13T05:40:55;101548.72;;;25.85;52.37
38616;BME280;24370;51.986;4.666;2023-07-13T05:43:21;101559.63;;;25.53;54.19
38616;BME280;24370;51.986;4.666;2023-07-13T05:45:47;101564.84;;;24.65;57.41
38616;BME280;24370;51.986;4.666;2023-07-13T05:48:12;101560.69;;;25.36;55.63
38616;BME280;24370;51.986;4.666;2023-07-13T05:50:38;101560.69;;;26.36;52.31
38616;BME280;24370;51.986;4.666;2023-07-13T05:53:04;101555.06;;;25.11;56.79
38616;BME280;24370;51.986;4.666;2023-07-13T05:55:30;101559.44;;;25.71;54.54
38616;BME280;24370;51.986;4.666;2023-07-13T05:57:56;101574.06;;;25.06;56.84
38616;BME280;24370;51.986;4.666;2023-07-13T06:00:24;101579.97;;;25.42;56.07
38616;BME280;24370;51.986;4.666;2023-07-13T06:02:50;101576.97;;;25.17;56.63
38616;BME280;24370;51.986;4.666;2023-07-13T06:05:15;101562.34;;;26.24;53.47
38616;BME280;24370;51.986;4.666;2023-07-13T06:07:42;101564.44;;;26.61;51.31
38616;BME280;24370;51.986;4.666;2023-07-13T06:10:08;101574.22;;;25.33;54.77
38616;BME280;24370;51.986;4.666;2023-07-13T06:12:36;101581.31;;;23.76;54.76
38616;BME280;24370;51.986;4.666;2023-07-13T06:15:02;101585.63;;;23.45;53.89
38616;BME280;24370;51.986;4.666;2023-07-13T06:17:28;101585.53;;;23.98;52.50
38616;BME280;24370;51.986;4.666;2023-07-13T06:19:53;101598.28;;;22.87;56.92
38616;BME280;24370;51.986;4.666;2023-07-13T06:22:19;101600.81;;;23.08;59.10
38616;BME280;24370;51.986;4.666;2023-07-13T06:24:44;101600.59;;;22.59;63.40
38616;BME280;24370;51.986;4.666;2023-07-13T06:27:09;101601.34;;;23.16;64.31
38616;BME280;24370;51.986;4.666;2023-07-13T06:29:35;101594.56;;;23.27;64.36
38616;BME280;24370;51.986;4.666;2023-07-13T06:32:01;101604.59;;;23.39;64.51
38616;BME280;24370;51.986;4.666;2023-07-13T06:34:26;101608.81;;;23.08;63.06
38616;BME280;24370;51.986;4.666;2023-07-13T06:36:52;101603.38;;;22.92;64.38
38616;BME280;24370;51.986;4.666;2023-07-13T06:39:17;101608.34;;;24.03;61.90
38616;BME280;24370;51.986;4.666;2023-07-13T06:41:43;101607.59;;;24.17;60.37
38616;BME280;24370;51.986;4.666;2023-07-13T06:44:08;101598.06;;;23.96;57.33
38616;BME280;24370;51.986;4.666;2023-07-13T06:46:37;101612.78;;;24.52;54.29
38616;BME280;24370;51.986;4.666;2023-07-13T06:49:02;101615.34;;;24.70;53.90
38616;BME280;24370;51.986;4.666;2023-07-13T06:51:28;101614.31;;;24.72;53.29
38616;BME280;24370;51.986;4.666;2023-07-13T06:53:53;101606.66;;;26.57;49.72
38616;BME280;24370;51.986;4.666;2023-07-13T06:56:19;101609.34;;;26.01;50.33
38616;BME280;24370;51.986;4.666;2023-07-13T06:58:45;101617.69;;;27.47;47.44
38616;BME280;24370;51.986;4.666;2023-07-13T07:01:10;101610.06;;;27.54;47.34
38616;BME280;24370;51.986;4.666;2023-07-13T07:03:36;101602.47;;;28.60;45.15
38616;BME280;24370;51.986;4.666;2023-07-13T07:06:21;101610.16;;;28.04;44.89
38616;BME280;24370;51.986;4.666;2023-07-13T07:08:49;101613.06;;;29.35;42.82
38616;BME280;24370;51.986;4.666;2023-07-13T07:11:18;101613.09;;;30.81;41.14
38616;BME280;24370;51.986;4.666;2023-07-13T07:13:44;101610.41;;;31.02;39.08
38616;BME280;24370;51.986;4.666;2023-07-13T07:16:10;101617.81;;;32.54;37.81
38616;BME280;24370;51.986;4.666;2023-07-13T07:18:36;101619.78;;;32.33;36.09
38616;BME280;24370;51.986;4.666;2023-07-13T07:21:01;101630.84;;;29.83;41.44
38616;BME280;24370;51.986;4.666;2023-07-13T07:23:27;101622.63;;;29.50;41.98
38616;BME280;24370;51.986;4.666;2023-07-13T07:25:53;101629.78;;;28.54;43.32
38616;BME280;24370;51.986;4.666;2023-07-13T07:28:19;101631.41;;;29.30;43.01
38616;BME280;24370;51.986;4.666;2023-07-13T07:30:45;101628.97;;;28.41;44.64
38616;BME280;24370;51.986;4.666;2023-07-13T07:33:11;101624.91;;;28.35;44.18
38616;BME280;24370;51.986;4.666;2023-07-13T07:35:37;101622.66;;;27.53;45.83
38616;BME280;24370;51.986;4.666;2023-07-13T07:38:02;101621.31;;;27.98;46.50
38616;BME280;24370;51.986;4.666;2023-07-13T07:40:28;101631.09;;;27.47;46.22
38616;BME280;24370;51.986;4.666;2023-07-13T07:42:53;101640.31;;;26.48;48.21
38616;BME280;24370;51.986;4.666;2023-07-13T07:45:21;101641.47;;;27.26;47.45
38616;BME280;24370;51.986;4.666;2023-07-13T07:47:46;101648.34;;;25.31;50.84
38616;BME280;24370;51.986;4.666;2023-07-13T07:50:12;101645.19;;;24.78;51.48
38616;BME280;24370;51.986;4.666;2023-07-13T07:52:37;101645.28;;;25.53;49.13
38616;BME280;24370;51.986;4.666;2023-07-13T07:55:05;101642.78;;;24.73;50.07
38616;BME280;24370;51.986;4.666;2023-07-13T07:57:31;101657.72;;;25.08;50.07
38616;BME280;24370;51.986;4.666;2023-07-13T07:59:56;101648.00;;;28.01;44.90
38616;BME280;24370;51.986;4.666;2023-07-13T08:02:22;101649.38;;;27.15;45.88
38616;BME280;24370;51.986;4.666;2023-07-13T08:04:47;101645.81;;;26.59;47.89
38616;BME280;24370;51.986;4.666;2023-07-13T08:07:13;101658.19;;;24.36;52.87
38616;BME280;24370;51.986;4.666;2023-07-13T08:09:38;101654.22;;;24.92;53.07
38616;BME280;24370;51.986;4.666;2023-07-13T08:12:04;101652.25;;;24.79;53.52
38616;BME280;24370;51.986;4.666;2023-07-13T08:14:30;101651.84;;;27.71;47.56
38616;BME280;24370;51.986;4.666;2023-07-13T08:16:55;101659.25;;;27.27;46.54
38616;BME280;24370;51.986;4.666;2023-07-13T08:19:20;101651.16;;;28.32;45.01
38616;BME280;24370;51.986;4.666;2023-07-13T08:21:46;101647.78;;;29.26;43.76
38616;BME280;24370;51.986;4.666;2023-07-13T08:24:13;101643.91;;;28.82;42.67
38616;BME280;24370;51.986;4.666;2023-07-13T08:26:39;101649.75;;;30.05;41.77
38616;BME280;24370;51.986;4.666;2023-07-13T08:29:04;101643.47;;;30.27;42.13
38616;BME280;24370;51.986;4.666;2023-07-13T08:31:30;101640.53;;;30.42;38.51
38616;BME280;24370;51.986;4.666;2023-07-13T08:33:55;101644.38;;;32.20;37.29
38616;BME280;24370;51.986;4.666;2023-07-13T08:36:21;101658.06;;;27.58;42.37
38616;BME280;24370;51.986;4.666;2023-07-13T08:38:46;101657.47;;;29.99;40.14
38616;BME280;24370;51.986;4.666;2023-07-13T08:41:15;101650.78;;;30.71;38.71
38616;BME280;24370;51.986;4.666;2023-07-13T08:43:45;101663.25;;;28.87;42.24
38616;BME280;24370;51.986;4.666;2023-07-13T08:46:17;101674.31;;;26.04;49.58
38616;BME280;24370;51.986;4.666;2023-07-13T08:48:52;101668.63;;;25.05;52.45
38616;BME280;24370;51.986;4.666;2023-07-13T08:54:30;101666.59;;;25.55;52.42
38616;BME280;24370;51.986;4.666;2023-07-13T08:56:58;101662.56;;;26.63;50.23
38616;BME280;24370;51.986;4.666;2023-07-13T08:59:27;101665.47;;;26.60;51.38
38616;BME280;24370;51.986;4.666;2023-07-13T09:02:34;101666.84;;;26.38;52.26
38616;BME280;24370;51.986;4.666;2023-07-13T09:05:12;101662.41;;;25.65;52.54
38616;BME280;24370;51.986;4.666;2023-07-13T09:07:41;101669.97;;;25.12;54.64
38616;BME280;24370;51.986;4.666;2023-07-13T09:10:15;101662.72;;;27.16;50.73
38616;BME280;24370;51.986;4.666;2023-07-13T09:15:43;101662.44;;;28.74;45.76
38616;BME280;24370;51.986;4.666;2023-07-13T09:23:36;101683.97;;;27.32;40.12
38616;BME280;24370;51.986;4.666;2023-07-13T09:28:45;101677.84;;;27.57;41.09
38616;BME280;24370;51.986;4.666;2023-07-13T09:33:50;101682.13;;;26.36;45.70
38616;BME280;24370;51.986;4.666;2023-07-13T09:36:33;101689.22;;;25.03;48.21
38616;BME280;24370;51.986;4.666;2023-07-13T09:44:38;101702.22;;;25.41;48.35
38616;BME280;24370;51.986;4.666;2023-07-13T09:47:16;101694.50;;;26.24;46.53
38616;BME280;24370;51.986;4.666;2023-07-13T09:49:41;101711.19;;;25.40;48.14
38616;BME280;24370;51.986;4.666;2023-07-13T09:52:13;101709.63;;;25.66;48.88
38616;BME280;24370;51.986;4.666;2023-07-13T09:54:43;101716.75;;;25.82;48.60
38616;BME280;24370;51.986;4.666;2023-07-13T09:57:15;101714.03;;;26.12;48.05
38616;BME280;24370;51.986;4.666;2023-07-13T09:59:45;101709.91;;;27.46;44.72
38616;BME280;24370;51.986;4.666;2023-07-13T10:05:01;101711.50;;;29.02;43.17
38616;BME280;24370;51.986;4.666;2023-07-13T10:07:29;101711.69;;;28.24;43.75
38616;BME280;24370;51.986;4.666;2023-07-13T10:09:59;101712.19;;;29.88;40.10
38616;BME280;24370;51.986;4.666;2023-07-13T10:12:29;101712.34;;;30.32;40.18
38616;BME280;24370;51.986;4.666;2023-07-13T10:14:58;101721.44;;;28.51;42.25
38616;BME280;24370;51.986;4.666;2023-07-13T10:17:32;101733.00;;;26.38;46.67
38616;BME280;24370;51.986;4.666;2023-07-13T10:20:03;101731.97;;;27.90;44.67
38616;BME280;24370;51.986;4.666;2023-07-13T10:23:00;101732.16;;;27.48;44.96
38616;BME280;24370;51.986;4.666;2023-07-13T10:25:31;101736.50;;;27.89;43.02
38616;BME280;24370;51.986;4.666;2023-07-13T10:28:03;101728.16;;;28.07;43.73
38616;BME280;24370;51.986;4.666;2023-07-13T10:30:35;101719.75;;;28.37;41.95
38616;BME280;24370;51.986;4.666;2023-07-13T10:33:10;101731.66;;;29.44;41.05
38616;BME280;24370;51.986;4.666;2023-07-13T10:35:37;101725.41;;;27.55;43.27
38616;BME280;24370;51.986;4.666;2023-07-13T10:38:11;101729.53;;;29.72;40.08
38616;BME280;24370;51.986;4.666;2023-07-13T10:40:57;101728.41;;;30.10;38.77
38616;BME280;24370;51.986;4.666;2023-07-13T10:43:27;101737.81;;;28.48;39.98
38616;BME280;24370;51.986;4.666;2023-07-13T10:45:54;101735.91;;;28.12;40.82
38616;BME280;24370;51.986;4.666;2023-07-13T10:48:21;101744.63;;;27.75;40.41
38616;BME280;24370;51.986;4.666;2023-07-13T10:50:50;101742.59;;;26.84;42.58
38616;BME280;24370;51.986;4.666;2023-07-13T10:53:36;101744.16;;;26.59;43.40
38616;BME280;24370;51.986;4.666;2023-07-13T10:56:27;101747.81;;;28.20;40.78
38616;BME280;24370;51.986;4.666;2023-07-13T10:59:31;101743.84;;;28.13;43.10
38616;BME280;24370;51.986;4.666;2023-07-13T11:04:31;101755.84;;;29.69;37.70
38616;BME280;24370;51.986;4.666;2023-07-13T11:07:16;101745.31;;;28.43;36.63
38616;BME280;24370;51.986;4.666;2023-07-13T11:09:43;101751.81;;;28.27;37.27
38616;BME280;24370;51.986;4.666;2023-07-13T11:15:00;101752.00;;;29.24;36.47
38616;BME280;24370;51.986;4.666;2023-07-13T11:17:48;101751.91;;;29.61;35.24
38616;BME280;24370;51.986;4.666;2023-07-13T11:27:46;101754.16;;;29.68;34.67
38616;BME280;24370;51.986;4.666;2023-07-13T11:35:37;101758.66;;;28.44;36.89
38616;BME280;24370;51.986;4.666;2023-07-13T11:38:42;101755.63;;;29.23;36.25
38616;BME280;24370;51.986;4.666;2023-07-13T11:41:15;101753.94;;;29.22;34.94
38616;BME280;24370;51.986;4.666;2023-07-13T11:43:42;101757.78;;;27.92;37.19
38616;BME280;24370;51.986;4.666;2023-07-13T11:46:24;101759.97;;;28.13;36.63
38616;BME280;24370;51.986;4.666;2023-07-13T11:48:51;101758.28;;;27.32;38.02
38616;BME280;24370;51.986;4.666;2023-07-13T11:51:35;101762.78;;;28.87;35.97
38616;BME280;24370;51.986;4.666;2023-07-13T11:54:48;101767.47;;;28.59;36.65
38616;BME280;24370;51.986;4.666;2023-07-13T12:00:15;101765.03;;;28.93;35.68
38616;BME280;24370;51.986;4.666;2023-07-13T12:02:48;101770.56;;;28.53;35.53
38616;BME280;24370;51.986;4.666;2023-07-13T12:05:17;101770.41;;;28.31;35.27
38616;BME280;24370;51.986;4.666;2023-07-13T12:07:43;101768.34;;;28.21;36.42
38616;BME280;24370;51.986;4.666;2023-07-13T12:12:36;101764.91;;;29.68;34.90
38616;BME280;24370;51.986;4.666;2023-07-13T12:15:06;101766.22;;;29.14;34.97
38616;BME280;24370;51.986;4.666;2023-07-13T12:17:34;101775.66;;;28.32;35.22
38616;BME280;24370;51.986;4.666;2023-07-13T12:20:03;101763.34;;;29.41;33.89
38616;BME280;24370;51.986;4.666;2023-07-13T12:22:34;101763.53;;;28.89;33.52
38616;BME280;24370;51.986;4.666;2023-07-13T12:24:59;101765.31;;;29.39;33.38
38616;BME280;24370;51.986;4.666;2023-07-13T12:27:26;101764.91;;;30.15;33.90
38616;BME280;24370;51.986;4.666;2023-07-13T12:30:05;101769.16;;;30.06;33.86
38616;BME280;24370;51.986;4.666;2023-07-13T12:32:31;101760.91;;;29.01;34.12
38616;BME280;24370;51.986;4.666;2023-07-13T12:35:17;101763.47;;;30.67;32.75
38616;BME280;24370;51.986;4.666;2023-07-13T12:37:45;101765.56;;;28.10;35.40
38616;BME280;24370;51.986;4.666;2023-07-13T12:40:19;101767.16;;;29.50;34.49
38616;BME280;24370;51.986;4.666;2023-07-13T12:42:48;101762.75;;;28.24;34.94
38616;BME280;24370;51.986;4.666;2023-07-13T12:45:22;101755.78;;;28.98;34.98
38616;BME280;24370;51.986;4.666;2023-07-13T12:47:52;101766.38;;;28.49;35.69
38616;BME280;24370;51.986;4.666;2023-07-13T12:50:21;101767.19;;;29.25;33.83
38616;BME280;24370;51.986;4.666;2023-07-13T12:52:52;101761.28;;;29.44;33.42
38616;BME280;24370;51.986;4.666;2023-07-13T12:55:19;101762.28;;;30.92;33.36
38616;BME280;24370;51.986;4.666;2023-07-13T12:57:56;101770.44;;;30.13;32.57
38616;BME280;24370;51.986;4.666;2023-07-13T13:02:54;101770.56;;;29.40;32.79
38616;BME280;24370;51.986;4.666;2023-07-13T13:05:21;101770.91;;;30.07;32.64
38616;BME280;24370;51.986;4.666;2023-07-13T13:07:49;101776.13;;;28.89;33.74
38616;BME280;24370;51.986;4.666;2023-07-13T13:10:15;101789.25;;;30.02;32.65
38616;BME280;24370;51.986;4.666;2023-07-13T13:12:41;101777.72;;;28.91;33.48
38616;BME280;24370;51.986;4.666;2023-07-13T13:15:10;101779.63;;;29.75;33.79
38616;BME280;24370;51.986;4.666;2023-07-13T13:17:37;101776.06;;;29.39;33.37
38616;BME280;24370;51.986;4.666;2023-07-13T13:20:17;101784.44;;;30.75;32.00
38616;BME280;24370;51.986;4.666;2023-07-13T13:22:43;101784.25;;;30.08;32.44
38616;BME280;24370;51.986;4.666;2023-07-13T13:25:13;101783.19;;;30.34;31.88
38616;BME280;24370;51.986;4.666;2023-07-13T13:27:41;101773.84;;;28.96;34.08
38616;BME280;24370;51.986;4.666;2023-07-13T13:30:14;101774.84;;;30.25;32.17
38616;BME280;24370;51.986;4.666;2023-07-13T13:32:42;101778.13;;;30.06;33.08
38616;BME280;24370;51.986;4.666;2023-07-13T13:35:16;101789.25;;;29.31;33.13
38616;BME280;24370;51.986;4.666;2023-07-13T13:37:43;101788.16;;;29.20;33.54
38616;BME280;24370;51.986;4.666;2023-07-13T13:40:17;101780.84;;;29.71;34.62
38616;BME280;24370;51.986;4.666;2023-07-13T13:42:43;101791.63;;;29.22;33.28
38616;BME280;24370;51.986;4.666;2023-07-13T13:45:12;101791.78;;;28.71;32.98
38616;BME280;24370;51.986;4.666;2023-07-13T13:47:39;101792.19;;;28.26;34.40
38616;BME280;24370;51.986;4.666;2023-07-13T13:52:37;101789.97;;;28.96;33.90